Time;durP1;ratioP1;P1;durP2;ratioP2;P2;SDS_P1;SDS_P2;PMS_P1;PMS_P2;Temp;Humidity;BMP_temperature;BMP_pressure;BME280_temperature;BME280_humidity;BME280_pressure;Samples;Min_cycle;Max_cycle;Signal;HPM_P1;HPM_P2
2021/11/13 00:01:43;;;;;;;25.75;20.27;;;23.20;91.70;;;;;;1940149;73;21174;-78
2021/11/13 00:04:14;;;;;;;26.55;19.73;;;23.20;91.50;;;;;;1931282;74;21131;-79
2021/11/13 00:06:45;;;;;;;24.52;17.50;;;23.20;91.50;;;;;;1947839;73;21197;-78
2021/11/13 00:09:16;;;;;;;23.90;18.17;;;23.20;91.50;;;;;;1940449;74;21155;-79
2021/11/13 00:11:47;;;;;;;25.12;18.50;;;23.30;91.60;;;;;;1928198;73;21193;-79
2021/11/13 00:14:20;;;;;;;22.00;17.05;;;23.30;91.80;;;;;;1933868;74;21536;-79
2021/11/13 00:16:50;;;;;;;28.30;18.15;;;23.40;91.40;;;;;;1875478;76;21100;-78
2021/11/13 00:19:22;;;;;;;20.25;16.10;;;23.50;91.20;;;;;;1862643;76;21155;-79
2021/11/13 00:21:53;;;;;;;23.92;17.82;;;23.60;91.00;;;;;;1873528;76;21599;-79
2021/11/13 00:24:23;;;;;;;22.32;17.32;;;23.70;90.70;;;;;;1905437;73;21737;-79
2021/11/13 00:26:54;;;;;;;23.30;17.15;;;23.70;90.70;;;;;;1917106;74;21162;-79
2021/11/13 00:29:25;;;;;;;24.57;16.55;;;23.70;90.50;;;;;;1930595;73;21079;-79
2021/11/13 00:31:56;;;;;;;22.05;16.10;;;23.70;90.50;;;;;;1927657;74;21181;-79
2021/11/13 00:34:28;;;;;;;21.48;16.40;;;23.70;90.60;;;;;;1938197;73;21186;-87
2021/11/13 00:37:07;;;;;;;23.52;16.62;;;23.70;90.60;;;;;;1938139;74;21485;-93
2021/11/13 00:39:38;;;;;;;23.92;16.15;;;23.80;90.20;;;;;;1935392;74;21132;-81
2021/11/13 00:42:14;;;;;;;21.82;16.32;;;23.80;90.10;;;;;;1933525;73;21773;-80
2021/11/13 00:44:44;;;;;;;24.70;15.13;;;23.80;90.50;;;;;;1902463;74;21120;-80
2021/11/13 00:47:15;;;;;;;20.77;15.28;;;23.80;90.00;;;;;;1906400;74;21112;-78
2021/11/13 00:49:46;;;;;;;19.15;14.63;;;23.90;90.10;;;;;;1913670;74;21104;-78
2021/11/13 00:52:17;;;;;;;21.45;15.40;;;23.90;89.80;;;;;;1923466;74;21179;-78
2021/11/13 00:54:48;;;;;;;19.32;15.35;;;23.90;89.50;;;;;;1903069;74;21681;-75
2021/11/13 00:57:19;;;;;;;22.58;14.75;;;23.90;89.30;;;;;;1902785;74;21692;-78
2021/11/13 00:59:50;;;;;;;22.87;16.20;;;24.00;89.10;;;;;;1900988;74;21184;-80
2021/11/13 01:02:21;;;;;;;21.70;15.70;;;24.00;88.90;;;;;;1916374;74;21647;-78
2021/11/13 01:04:52;;;;;;;21.73;15.58;;;23.90;88.60;;;;;;1908402;74;21573;-77
2021/11/13 01:07:23;;;;;;;18.25;14.40;;;23.90;88.80;;;;;;1906260;74;21127;-77
2021/11/13 01:09:54;;;;;;;18.62;14.98;;;24.00;89.10;;;;;;1910136;74;21108;-77
2021/11/13 01:12:25;;;;;;;20.12;14.68;;;24.10;88.30;;;;;;1903846;74;21128;-78
2021/11/13 01:14:56;;;;;;;21.85;15.65;;;24.10;88.60;;;;;;1904775;74;21119;-76
2021/11/13 01:17:33;;;;;;;22.77;14.05;;;24.20;88.40;;;;;;1900882;74;21144;-81
2021/11/13 01:20:06;;;;;;;19.65;14.63;;;24.20;88.30;;;;;;1898008;74;21205;-77
2021/11/13 01:22:37;;;;;;;20.72;15.50;;;24.20;88.30;;;;;;1906373;74;21119;-81
2021/11/13 01:25:10;;;;;;;17.45;13.95;;;24.30;88.10;;;;;;1905586;74;21633;-79
2021/11/13 01:27:41;;;;;;;17.37;13.85;;;24.30;88.30;;;;;;1904003;74;21174;-86
2021/11/13 01:30:13;;;;;;;19.10;13.38;;;24.40;87.00;;;;;;1906887;74;21175;-76
2021/11/13 01:32:45;;;;;;;17.27;13.43;;;24.40;87.00;;;;;;1907401;74;21175;-78
2021/11/13 01:35:17;;;;;;;16.23;13.13;;;24.50;86.90;;;;;;1904469;74;21101;-78
2021/11/13 01:37:48;;;;;;;17.42;12.70;;;24.50;86.10;;;;;;1904043;74;21108;-78
2021/11/13 01:40:22;;;;;;;19.17;13.28;;;24.60;86.30;;;;;;1901554;74;21178;-74
2021/11/13 01:42:55;;;;;;;16.40;11.70;;;24.70;85.80;;;;;;1908634;74;21578;-78
2021/11/13 01:45:27;;;;;;;18.48;13.20;;;24.80;85.50;;;;;;1920718;74;21616;-78
2021/11/13 01:48:16;;;;;;;37.58;15.83;;;24.80;84.80;;;;;;1927877;73;21632;-77
2021/11/13 01:50:48;;;;;;;29.05;14.30;;;24.80;84.90;;;;;;1860927;76;21202;-76
2021/11/13 01:53:20;;;;;;;17.35;11.78;;;24.80;85.00;;;;;;1933224;73;21060;-80
2021/11/13 01:55:56;;;;;;;15.83;12.30;;;24.90;84.00;;;;;;1923990;74;21154;-79
2021/11/13 01:58:27;;;;;;;;;;;24.90;83.90;;;;;;1925851;73;21081;-79
2021/11/13 02:00:58;;;;;;;17.17;11.65;;;24.90;84.50;;;;;;1924710;73;20237;-79
2021/11/13 02:03:29;;;;;;;14.58;11.50;;;24.90;83.90;;;;;;1944135;73;21114;-78
2021/11/13 02:06:00;;;;;;;14.33;11.78;;;24.80;83.70;;;;;;1935322;73;21634;-78
2021/11/13 02:08:31;;;;;;;17.10;11.68;;;24.80;83.40;;;;;;1930825;73;21580;-78
2021/11/13 02:11:02;;;;;;;16.95;11.38;;;24.90;83.20;;;;;;1929163;73;21138;-78
2021/11/13 02:13:33;;;;;;;14.90;11.50;;;25.00;83.40;;;;;;1922101;73;21140;-78
2021/11/13 02:16:06;;;;;;;16.77;12.13;;;25.00;82.70;;;;;;1932609;73;21179;-79
2021/11/13 02:18:39;;;;;;;15.70;11.83;;;25.00;82.90;;;;;;1926721;73;21173;-79
2021/11/13 02:21:12;;;;;;;20.85;11.90;;;25.00;82.60;;;;;;1923823;73;21098;-78
2021/11/13 02:23:44;;;;;;;15.78;11.40;;;25.10;83.00;;;;;;1931105;74;21194;-78
2021/11/13 02:26:15;;;;;;;16.07;11.35;;;25.10;82.70;;;;;;1927184;73;21655;-77
2021/11/13 02:28:46;;;;;;;15.35;11.68;;;25.20;81.30;;;;;;1933166;73;21095;-78
2021/11/13 02:31:17;;;;;;;13.22;11.08;;;25.20;82.80;;;;;;1929061;74;21592;-78
2021/11/13 02:33:47;;;;;;;19.15;11.57;;;25.30;82.10;;;;;;1922827;73;21215;-77
2021/11/13 02:36:18;;;;;;;16.07;11.50;;;25.30;81.40;;;;;;1912460;74;21267;-79
2021/11/13 02:38:54;;;;;;;16.75;10.32;;;25.40;81.40;;;;;;1926292;73;21187;-79
2021/11/13 02:41:22;;;;;;;12.58;10.50;;;25.50;80.80;;;;;;1921685;74;21220;-78
2021/11/13 02:43:54;;;;;;;16.65;12.15;;;25.50;80.80;;;;;;1927695;73;21532;-79
2021/11/13 02:46:27;;;;;;;14.13;11.60;;;25.50;80.60;;;;;;1924654;73;21113;-79
2021/11/13 02:48:58;;;;;;;15.32;12.50;;;25.50;80.20;;;;;;1920186;73;21073;-79
2021/11/13 02:51:29;;;;;;;14.13;10.88;;;25.50;80.70;;;;;;1913963;73;21102;-78
2021/11/13 02:54:00;;;;;;;17.10;11.65;;;25.50;79.40;;;;;;1912730;74;21211;-78
2021/11/13 02:56:31;;;;;;;12.35;10.90;;;25.50;79.30;;;;;;1890416;74;21638;-79
2021/11/13 02:59:02;;;;;;;12.98;10.48;;;25.50;78.90;;;;;;1921630;73;21148;-79
2021/11/13 03:01:53;;;;;;;16.12;11.28;;;25.60;79.10;;;;;;1906181;73;21593;-80
2021/11/13 03:04:24;;;;;;;14.60;11.60;;;25.60;79.00;;;;;;1859630;75;21583;-78
2021/11/13 03:06:54;;;;;;;15.63;11.50;;;25.70;78.70;;;;;;1858199;76;21597;-79
2021/11/13 03:09:25;;;;;;;14.33;10.93;;;25.80;79.20;;;;;;1855529;76;21127;-79
2021/11/13 03:11:56;;;;;;;16.17;11.33;;;25.80;78.10;;;;;;1857079;76;21112;-79
2021/11/13 03:14:27;;;;;;;14.15;11.53;;;25.90;77.70;;;;;;1852115;76;21107;-80
2021/11/13 03:17:00;;;;;;;14.80;10.80;;;25.90;77.40;;;;;;1857490;76;21666;-79
2021/11/13 03:19:32;;;;;;;13.43;10.98;;;26.00;79.30;;;;;;1854130;74;21112;-80
2021/11/13 03:22:03;;;;;;;15.18;11.18;;;26.00;77.70;;;;;;1850577;76;21221;-78
2021/11/13 03:24:34;;;;;;;16.07;11.53;;;26.10;77.40;;;;;;1860378;75;21147;-80
2021/11/13 03:27:05;;;;;;;14.68;11.48;;;26.10;77.50;;;;;;1873633;74;21628;-79
2021/11/13 03:29:38;;;;;;;16.95;12.28;;;26.20;76.70;;;;;;1865639;74;21135;-79
2021/11/13 03:32:09;;;;;;;15.80;11.90;;;26.10;76.80;;;;;;1872167;74;21132;-79
2021/11/13 03:34:40;;;;;;;14.18;12.07;;;26.10;75.70;;;;;;1867076;74;21111;-79
2021/11/13 03:37:13;;;;;;;16.52;11.95;;;26.20;75.00;;;;;;1869737;74;21265;-78
2021/11/13 03:39:44;;;;;;;17.60;12.03;;;26.10;76.00;;;;;;1862155;75;21100;-79
2021/11/13 03:42:15;;;;;;;14.15;11.48;;;26.10;76.00;;;;;;1863307;75;21203;-79
2021/11/13 03:44:46;;;;;;;14.85;12.13;;;26.10;76.30;;;;;;1869323;75;21132;-79
2021/11/13 03:47:17;;;;;;;16.00;12.35;;;26.10;75.60;;;;;;1866828;74;21060;-79
2021/11/13 03:49:48;;;;;;;14.63;12.23;;;26.20;75.30;;;;;;1859877;75;21089;-79
2021/11/13 03:52:19;;;;;;;16.37;11.80;;;26.20;75.10;;;;;;1864350;76;21190;-78
2021/11/13 03:54:50;;;;;;;15.68;11.85;;;26.20;74.80;;;;;;1822709;76;21169;-79
2021/11/13 03:57:21;;;;;;;15.20;11.90;;;26.20;74.50;;;;;;1856004;76;21166;-79
2021/11/13 03:59:54;;;;;;;15.68;12.20;;;26.20;74.80;;;;;;1838531;77;21686;-78
2021/11/13 04:02:25;;;;;;;15.83;12.55;;;26.20;74.90;;;;;;1837978;75;21128;-78
2021/11/13 04:04:56;;;;;;;13.40;11.63;;;26.30;75.30;;;;;;1843509;76;21159;-78
2021/11/13 04:07:27;;;;;;;15.88;12.30;;;26.40;74.80;;;;;;1840806;76;21151;-78
2021/11/13 04:09:58;;;;;;;17.25;12.30;;;26.40;74.80;;;;;;1849349;76;21781;-79
2021/11/13 04:12:29;;;;;;;15.75;12.33;;;26.50;74.80;;;;;;1829470;76;21205;-78
2021/11/13 04:15:00;;;;;;;14.80;11.88;;;26.40;74.60;;;;;;1844676;76;21622;-79
2021/11/13 04:17:32;;;;;;;16.20;11.57;;;26.50;74.50;;;;;;1848595;76;21131;-78
2021/11/13 04:20:03;;;;;;;14.80;11.60;;;26.50;75.00;;;;;;1854812;76;21248;-78
2021/11/13 04:22:34;;;;;;;15.60;11.70;;;26.60;74.60;;;;;;1862806;76;21669;-78
2021/11/13 04:25:06;;;;;;;16.93;11.65;;;26.60;73.90;;;;;;1855021;76;21197;-78
2021/11/13 04:27:37;;;;;;;13.50;11.65;;;26.60;73.80;;;;;;1844962;76;21291;-78
2021/11/13 04:30:12;;;;;;;13.20;11.22;;;26.70;73.90;;;;;;1846257;76;21680;-77
2021/11/13 04:32:44;;;;;;;15.75;12.05;;;26.70;74.10;;;;;;1839845;77;21184;-76
2021/11/13 04:37:50;;;;;;;14.35;11.48;;;26.90;74.40;;;;;;1817305;78;21234;-76
2021/11/13 04:40:23;;;;;;;16.32;11.40;;;27.00;74.00;;;;;;1824434;77;22670;-77
2021/11/13 04:42:54;;;;;;;16.52;11.45;;;27.00;73.90;;;;;;1822305;77;21422;-77
2021/11/13 04:45:25;;;;;;;16.23;11.68;;;27.10;73.80;;;;;;1834691;77;21096;-77
2021/11/13 04:47:57;;;;;;;14.50;11.88;;;27.20;73.80;;;;;;1827031;77;21568;-77
2021/11/13 04:50:29;;;;;;;15.03;12.33;;;27.20;73.60;;;;;;1828831;78;21135;-78
2021/11/13 04:53:00;;;;;;;15.70;12.23;;;27.20;73.20;;;;;;1828488;78;21573;-78
2021/11/13 04:55:31;;;;;;;15.70;12.23;;;27.30;72.60;;;;;;1818356;77;21129;-77
2021/11/13 04:58:04;;;;;;;14.70;11.45;;;27.30;72.90;;;;;;1825024;77;21155;-77
2021/11/13 05:00:36;;;;;;;15.68;11.03;;;27.40;72.80;;;;;;1816299;77;22064;-78
2021/11/13 05:03:08;;;;;;;20.02;12.33;;;27.40;72.20;;;;;;1826688;77;21155;-78
2021/11/13 05:05:39;;;;;;;15.00;12.30;;;27.40;72.80;;;;;;1819614;76;21266;-78
2021/11/13 05:08:09;;;;;;;15.95;11.48;;;27.50;71.40;;;;;;1812279;77;21209;-78
2021/11/13 05:10:41;;;;;;;14.65;11.70;;;27.70;71.90;;;;;;1800021;77;21677;-77
2021/11/13 05:13:12;;;;;;;16.45;11.93;;;27.90;71.30;;;;;;1791986;78;21217;-78
2021/11/13 05:15:43;;;;;;;15.60;11.45;;;28.10;71.40;;;;;;1799705;77;21164;-77
2021/11/13 05:18:14;;;;;;;15.55;12.23;;;28.10;70.60;;;;;;1815483;77;21647;-77
2021/11/13 05:34:17;;;;;;;15.78;11.18;;;28.90;69.60;;;;;;1867672;73;21760;-77
2021/11/13 05:36:48;;;;;;;15.38;11.35;;;28.90;68.40;;;;;;1900829;75;21657;-77
2021/11/13 05:39:19;;;;;;;15.25;11.00;;;29.00;68.50;;;;;;1900734;75;21137;-77
2021/11/13 05:41:51;;;;;;;12.40;10.40;;;29.10;68.00;;;;;;1898378;75;21120;-78
2021/11/13 05:44:21;;;;;;;18.80;11.60;;;29.10;66.90;;;;;;1898300;75;21606;-77
2021/11/13 05:46:54;;;;;;;16.15;12.20;;;29.10;67.70;;;;;;1899175;75;21690;-76
2021/11/13 05:49:24;;;;;;;15.75;11.97;;;29.10;67.00;;;;;;1892283;75;21141;-77
2021/11/13 05:51:55;;;;;;;14.47;11.25;;;29.10;67.40;;;;;;1895503;75;21639;-77
2021/11/13 05:54:26;;;;;;;13.72;11.40;;;29.00;67.10;;;;;;1897780;75;21135;-78
2021/11/13 05:56:57;;;;;;;15.35;10.90;;;29.00;67.20;;;;;;1893822;75;21670;-78
2021/11/13 05:59:29;;;;;;;14.75;10.60;;;28.90;68.00;;;;;;1897784;75;21166;-78
2021/11/13 06:02:00;;;;;;;14.23;10.72;;;28.80;67.70;;;;;;1899428;75;21122;-78
2021/11/13 06:04:31;;;;;;;15.25;10.45;;;28.80;67.50;;;;;;1898425;75;21060;-78
2021/11/13 06:07:03;;;;;;;12.15;9.95;;;28.80;68.80;;;;;;1920967;74;21107;-78
2021/11/13 06:09:34;;;;;;;12.15;10.05;;;28.70;68.30;;;;;;1899681;75;21601;-78
2021/11/13 06:12:06;;;;;;;12.30;10.50;;;28.60;68.00;;;;;;1867385;77;21668;-78
2021/11/13 06:14:37;;;;;;;16.37;10.65;;;28.50;67.90;;;;;;1880564;75;21142;-78
2021/11/13 06:17:09;;;;;;;13.08;11.03;;;28.50;68.60;;;;;;1897657;75;21132;-78
2021/11/13 06:19:40;;;;;;;14.45;11.00;;;28.40;67.80;;;;;;1896754;75;21202;-78
2021/11/13 06:22:11;;;;;;;14.80;11.50;;;28.40;67.90;;;;;;1893783;75;21046;-78
2021/11/13 06:24:42;;;;;;;17.02;11.43;;;28.40;69.30;;;;;;1895607;75;21132;-78
2021/11/13 06:27:16;;;;;;;14.25;11.57;;;28.30;69.00;;;;;;1897365;75;21218;-78
2021/11/13 06:29:46;;;;;;;14.25;11.38;;;28.20;68.80;;;;;;1888272;74;21591;-78
2021/11/13 06:32:17;;;;;;;12.82;11.53;;;28.20;68.60;;;;;;1867047;77;21217;-78
2021/11/13 06:34:48;;;;;;;13.40;11.05;;;28.20;68.70;;;;;;1903693;73;21115;-78
2021/11/13 06:37:19;;;;;;;14.45;11.93;;;28.10;68.90;;;;;;1922969;73;21144;-78
2021/11/13 06:39:50;;;;;;;14.50;11.68;;;28.10;69.90;;;;;;1911889;73;21204;-78
2021/11/13 06:42:21;;;;;;;15.78;11.15;;;28.10;69.60;;;;;;1912293;75;21463;-79
2021/11/13 06:44:52;;;;;;;13.45;10.85;;;28.10;69.70;;;;;;1912273;75;21618;-78
2021/11/13 06:47:23;;;;;;;15.38;11.83;;;28.00;70.10;;;;;;1905163;73;22317;-79
2021/11/13 06:49:53;;;;;;;14.38;11.45;;;28.00;70.20;;;;;;1917057;73;21232;-78
2021/11/13 06:52:24;;;;;;;16.17;11.30;;;28.00;70.10;;;;;;1913283;73;21205;-78
2021/11/13 06:54:55;;;;;;;15.23;11.75;;;28.10;70.20;;;;;;1905438;75;21579;-78
2021/11/13 06:57:26;;;;;;;17.15;11.80;;;28.10;70.10;;;;;;1909297;75;21099;-78
2021/11/13 06:59:57;;;;;;;16.60;12.33;;;28.10;70.20;;;;;;1912063;74;21122;-78
2021/11/13 07:02:28;;;;;;;15.72;12.07;;;28.10;70.00;;;;;;1902419;73;21126;-78
2021/11/13 07:04:59;;;;;;;18.52;12.95;;;28.10;70.30;;;;;;1889482;74;22021;-78
2021/11/13 07:07:33;;;;;;;13.58;11.80;;;28.10;68.70;;;;;;1910277;74;21064;-78
2021/11/13 07:10:04;;;;;;;16.80;12.60;;;28.10;68.40;;;;;;1914088;74;21174;-79
2021/11/13 07:12:36;;;;;;;15.72;11.93;;;28.20;69.00;;;;;;1915927;73;21174;-77
2021/11/13 07:15:08;;;;;;;16.62;12.13;;;28.10;69.90;;;;;;1910096;74;21565;-77
2021/11/13 07:17:39;;;;;;;16.10;12.33;;;28.10;69.30;;;;;;1912410;75;21632;-77
2021/11/13 07:20:11;;;;;;;17.45;12.15;;;28.00;69.50;;;;;;1912244;75;21626;-77
2021/11/13 07:22:45;;;;;;;15.48;11.93;;;28.00;69.30;;;;;;1911933;75;21111;-78
2021/11/13 07:25:16;;;;;;;14.83;12.53;;;28.00;69.70;;;;;;1911707;75;21553;-78
2021/11/13 07:27:48;;;;;;;16.67;12.75;;;28.00;70.00;;;;;;1911362;75;21139;-78
2021/11/13 07:30:23;;;;;;;18.92;12.05;;;28.00;69.70;;;;;;1879519;75;21047;-78
2021/11/13 07:32:53;;;;;;;18.77;13.22;;;28.00;70.10;;;;;;1908502;75;21073;-78
2021/11/13 07:35:25;;;;;;;15.53;12.98;;;28.00;70.60;;;;;;1912643;74;21613;-77
2021/11/13 07:37:56;;;;;;;18.55;12.90;;;28.00;69.50;;;;;;1913215;74;21647;-78
2021/11/13 07:40:27;;;;;;;14.40;12.05;;;28.10;69.30;;;;;;1924202;74;21072;-78
2021/11/13 07:43:01;;;;;;;15.38;11.73;;;28.10;69.90;;;;;;1897584;74;21664;-79
2021/11/13 07:45:34;;;;;;;17.62;11.08;;;28.10;69.90;;;;;;1926079;74;21087;-78
2021/11/13 07:48:07;;;;;;;19.77;11.88;;;28.10;69.50;;;;;;1922849;73;21131;-78
2021/11/13 07:50:39;;;;;;;14.78;11.90;;;28.10;69.60;;;;;;1886439;74;21695;-78
2021/11/13 07:53:11;;;;;;;16.75;12.03;;;28.10;69.50;;;;;;1917771;75;21080;-78
2021/11/13 07:55:43;;;;;;;14.47;11.93;;;28.10;69.60;;;;;;1929520;73;21604;-77
2021/11/13 07:58:16;;;;;;;16.45;12.45;;;28.20;69.40;;;;;;1896238;74;21139;-77
2021/11/13 08:00:47;;;;;;;14.68;12.00;;;28.20;69.40;;;;;;1889574;74;21381;-77
2021/11/13 08:03:20;;;;;;;13.75;11.50;;;28.30;69.00;;;;;;1924284;74;21220;-77
2021/11/13 08:05:51;;;;;;;15.23;11.73;;;28.30;68.60;;;;;;1924627;74;21145;-78
2021/11/13 08:08:22;;;;;;;18.32;13.05;;;28.40;68.40;;;;;;1948966;73;21114;-77
2021/11/13 08:10:53;;;;;;;15.18;11.97;;;28.40;68.60;;;;;;1924888;74;21187;-77
2021/11/13 08:13:24;;;;;;;19.98;13.38;;;28.40;68.70;;;;;;1925017;74;21114;-76
2021/11/13 08:15:56;;;;;;;16.00;12.25;;;28.40;68.90;;;;;;1937193;73;21618;-77
2021/11/13 08:18:28;;;;;;;16.07;12.35;;;28.30;68.60;;;;;;1958011;73;21150;-77
2021/11/13 08:21:00;;;;;;;15.00;11.53;;;28.30;69.20;;;;;;1950985;73;21519;-76
2021/11/13 08:23:34;;;;;;;14.25;11.68;;;28.30;69.00;;;;;;1924536;73;21538;-78
2021/11/13 08:26:05;;;;;;;17.15;13.13;;;28.20;69.10;;;;;;1926606;73;21126;-77
2021/11/13 08:28:37;;;;;;;14.53;11.00;;;28.20;69.60;;;;;;1933132;73;21034;-77
2021/11/13 08:31:08;;;;;;;14.63;11.05;;;28.20;68.70;;;;;;1909700;73;21566;-77
2021/11/13 08:33:40;;;;;;;14.55;11.83;;;28.20;69.50;;;;;;1912092;73;21575;-77
2021/11/13 08:36:11;;;;;;;14.40;11.05;;;28.20;69.40;;;;;;1925669;72;21171;-77
2021/11/13 08:38:42;;;;;;;17.23;11.45;;;28.10;69.60;;;;;;1918014;73;21551;-77
2021/11/13 08:41:13;;;;;;;14.73;11.08;;;28.10;69.60;;;;;;1866191;76;21683;-78
2021/11/13 08:43:44;;;;;;;17.27;11.80;;;28.10;69.70;;;;;;1852502;76;21591;-77
2021/11/13 08:46:17;;;;;;;17.52;12.05;;;28.10;69.50;;;;;;1901648;74;21527;-77
2021/11/13 08:48:48;;;;;;;18.37;12.35;;;28.10;69.70;;;;;;1901495;75;21113;-78
2021/11/13 08:51:20;;;;;;;16.73;11.28;;;28.10;69.30;;;;;;1892903;75;21132;-79
2021/11/13 08:53:54;;;;;;;14.25;11.83;;;28.10;69.70;;;;;;1890211;75;21644;-78
2021/11/13 08:56:26;;;;;;;16.77;11.45;;;28.10;69.90;;;;;;1912758;74;21132;-78
2021/11/13 08:58:58;;;;;;;17.87;11.38;;;28.10;69.60;;;;;;1898217;75;21103;-78
2021/11/13 09:01:31;;;;;;;13.75;11.93;;;28.10;69.90;;;;;;1898659;75;21103;-77
2021/11/13 09:04:03;;;;;;;17.07;12.33;;;28.10;70.00;;;;;;1885389;75;21251;-79
2021/11/13 09:06:35;;;;;;;17.30;12.53;;;28.10;70.20;;;;;;1876061;75;21239;-77
2021/11/13 09:09:07;;;;;;;15.60;11.78;;;28.10;70.20;;;;;;1899159;75;21551;-77
2021/11/13 09:11:41;;;;;;;15.18;11.48;;;28.00;70.30;;;;;;1900530;74;21119;-76
2021/11/13 09:14:15;;;;;;;16.30;12.40;;;28.00;70.40;;;;;;1880883;75;21216;-78
2021/11/13 09:16:46;;;;;;;15.78;11.48;;;28.00;70.50;;;;;;1886811;75;21120;-78
2021/11/13 09:19:18;;;;;;;16.00;11.43;;;27.90;70.40;;;;;;1867324;77;21146;-77
2021/11/13 09:21:51;;;;;;;15.58;12.35;;;27.90;70.30;;;;;;1875260;75;21823;-78
2021/11/13 09:24:24;;;;;;;13.98;10.72;;;27.90;70.20;;;;;;1899267;75;21566;-77
2021/11/13 09:26:54;;;;;;;14.70;11.25;;;27.90;70.30;;;;;;1898816;75;21165;-77
2021/11/13 09:29:25;;;;;;;14.20;11.50;;;27.90;70.40;;;;;;1895008;74;21115;-78
2021/11/13 09:31:56;;;;;;;15.85;11.43;;;27.90;70.80;;;;;;1898067;75;21217;-78
2021/11/13 09:34:27;;;;;;;17.87;11.60;;;27.80;70.70;;;;;;1883158;75;21582;-78
2021/11/13 09:36:58;;;;;;;14.38;11.35;;;27.80;70.60;;;;;;1898847;75;21135;-78
2021/11/13 09:39:29;;;;;;;14.95;11.12;;;27.80;70.80;;;;;;1892402;74;21112;-77
2021/11/13 09:42:02;;;;;;;13.08;10.70;;;27.80;70.50;;;;;;1900088;74;21199;-77
2021/11/13 09:44:34;;;;;;;19.10;11.60;;;27.80;70.80;;;;;;1905576;74;21529;-77
2021/11/13 09:47:05;;;;;;;14.85;11.40;;;27.70;70.80;;;;;;1901369;75;21599;-78
2021/11/13 09:49:36;;;;;;;15.23;11.83;;;27.70;70.90;;;;;;1867717;74;21556;-78
2021/11/13 09:52:08;;;;;;;16.93;11.18;;;27.70;71.00;;;;;;1900427;74;21184;-78
2021/11/13 09:54:39;;;;;;;25.68;13.88;;;27.60;70.90;;;;;;1853406;76;21161;-78
2021/11/13 09:57:11;;;;;;;18.07;11.28;;;27.60;71.00;;;;;;1855991;77;21183;-79
2021/11/13 09:59:41;;;;;;;18.00;11.93;;;27.60;71.00;;;;;;1888550;75;21106;-79
2021/11/13 10:02:13;;;;;;;15.48;11.95;;;27.60;71.20;;;;;;1880707;75;21099;-79
2021/11/13 10:04:46;;;;;;;13.48;11.20;;;27.60;71.30;;;;;;1910122;74;21123;-78
2021/11/13 10:07:17;;;;;;;18.77;11.68;;;27.60;71.20;;;;;;1902092;75;21122;-78
2021/11/13 10:09:50;;;;;;;15.40;11.53;;;27.60;71.40;;;;;;1898848;75;21114;-79
2021/11/13 10:12:23;;;;;;;19.48;11.95;;;27.60;71.40;;;;;;1876989;75;21134;-78
2021/11/13 10:14:54;;;;;;;20.32;16.02;;;27.50;71.60;;;;;;1898609;75;21192;-78
2021/11/13 10:17:26;;;;;;;20.80;15.75;;;27.50;71.90;;;;;;1895866;74;21108;-79
2021/11/13 10:19:58;;;;;;;15.75;11.63;;;27.50;71.90;;;;;;1907896;74;21040;-78
2021/11/13 10:22:31;;;;;;;15.00;11.68;;;27.40;71.90;;;;;;1895910;75;21103;-78
2021/11/13 10:25:02;;;;;;;20.50;12.80;;;27.40;72.10;;;;;;1897176;74;21150;-79
2021/11/13 10:27:36;;;;;;;22.20;12.85;;;27.40;72.30;;;;;;1892206;74;21130;-78
2021/11/13 10:30:10;;;;;;;14.63;11.88;;;27.40;72.40;;;;;;1860992;75;21697;-79
2021/11/13 10:32:45;;;;;;;14.98;12.03;;;27.40;72.40;;;;;;1881411;75;21120;-79
2021/11/13 10:35:15;;;;;;;17.95;12.45;;;27.40;72.50;;;;;;1878246;75;21398;-78
2021/11/13 10:37:51;;;;;;;15.53;12.07;;;27.40;72.50;;;;;;1861603;74;21225;-78
2021/11/13 10:40:24;;;;;;;17.30;12.60;;;27.40;72.70;;;;;;1896212;75;21148;-78
2021/11/13 10:42:59;;;;;;;14.43;12.85;;;27.30;72.70;;;;;;1894037;75;21088;-78
2021/11/13 10:45:33;;;;;;;17.00;13.10;;;27.30;72.70;;;;;;1903677;74;21119;-78
2021/11/13 10:48:06;;;;;;;16.67;12.55;;;27.30;72.70;;;;;;1899899;74;21065;-78
2021/11/13 10:50:38;;;;;;;20.25;13.10;;;27.30;72.60;;;;;;1895801;74;21110;-77
2021/11/13 10:53:13;;;;;;;18.52;14.30;;;27.30;72.80;;;;;;1897827;74;21680;-78
2021/11/13 10:55:46;;;;;;;20.43;13.98;;;27.30;72.90;;;;;;1883225;75;21195;-79
2021/11/13 10:58:18;;;;;;;18.73;13.18;;;27.30;72.80;;;;;;1896724;74;21245;-78
2021/11/13 11:00:50;;;;;;;21.25;15.65;;;27.30;72.90;;;;;;1890472;74;21487;-80
2021/11/13 11:03:22;;;;;;;18.10;14.58;;;27.30;73.70;;;;;;1879538;76;21137;-76
2021/11/13 11:05:53;;;;;;;16.23;12.90;;;27.20;72.90;;;;;;1827350;78;21134;-78
2021/11/13 11:08:26;;;;;;;20.23;14.95;;;27.20;73.00;;;;;;1891023;74;21232;-78
2021/11/13 11:10:59;;;;;;;18.98;15.90;;;27.20;73.10;;;;;;1897616;74;21615;-78
2021/11/13 11:13:33;;;;;;;21.37;15.58;;;27.20;73.30;;;;;;1899350;74;21127;-78
2021/11/13 11:16:04;;;;;;;23.10;15.30;;;27.20;73.50;;;;;;1895124;75;21745;-78
2021/11/13 11:18:38;;;;;;;18.55;14.95;;;27.10;73.80;;;;;;1893606;75;21069;-78
2021/11/13 11:21:09;;;;;;;22.10;16.40;;;27.20;74.00;;;;;;1891044;74;21204;-79
2021/11/13 11:23:40;;;;;;;23.18;16.77;;;27.20;74.70;;;;;;1892646;74;21261;-78
2021/11/13 11:26:13;;;;;;;26.90;17.50;;;27.10;74.80;;;;;;1892666;74;21272;-79
2021/11/13 11:28:47;;;;;;;26.45;16.67;;;27.10;75.30;;;;;;1893957;74;21195;-78
2021/11/13 11:31:24;;;;;;;22.45;16.97;;;27.10;76.10;;;;;;1887869;75;21684;-78
2021/11/13 11:33:55;;;;;;;20.43;16.35;;;27.00;75.80;;;;;;1858140;75;21134;-79
2021/11/13 11:36:30;;;;;;;26.48;17.55;;;27.00;75.80;;;;;;1867398;76;21079;-78
2021/11/13 11:39:02;;;;;;;24.77;17.07;;;27.00;76.00;;;;;;1906116;75;21537;-79
2021/11/13 11:41:33;;;;;;;23.98;17.30;;;27.00;75.90;;;;;;1898250;75;21205;-77
2021/11/13 11:44:04;;;;;;;22.90;17.52;;;26.90;76.00;;;;;;1892898;74;21199;-77
2021/11/13 11:46:35;;;;;;;26.40;17.98;;;26.90;75.80;;;;;;1912012;75;21064;-78
2021/11/13 11:49:06;;;;;;;24.60;17.77;;;26.90;76.40;;;;;;1912243;75;21154;-78
2021/11/13 11:51:37;;;;;;;25.52;18.17;;;26.90;76.40;;;;;;1918038;73;21182;-78
2021/11/13 11:54:10;;;;;;;29.02;19.20;;;26.80;76.30;;;;;;1915148;73;21177;-78
2021/11/13 11:56:42;;;;;;;26.60;18.42;;;26.80;76.80;;;;;;1942975;72;21602;-78
2021/11/13 11:59:14;;;;;;;31.27;19.23;;;26.80;76.80;;;;;;1922679;74;21574;-78
2021/11/13 12:01:44;;;;;;;28.67;18.20;;;26.80;77.10;;;;;;1911172;75;21530;-78
2021/11/13 12:04:22;;;;;;;27.48;20.12;;;26.80;76.90;;;;;;1911745;75;21159;-77
2021/11/13 12:06:55;;;;;;;26.70;20.08;;;26.80;76.90;;;;;;1915509;74;21179;-78
2021/11/13 12:09:29;;;;;;;27.80;19.23;;;26.70;77.20;;;;;;1879857;76;21133;-78
2021/11/13 12:12:03;;;;;;;27.65;20.10;;;26.70;77.50;;;;;;1879726;76;21081;-78
2021/11/13 12:14:37;;;;;;;30.00;20.37;;;26.70;77.60;;;;;;1898272;75;21176;-78
2021/11/13 12:17:10;;;;;;;29.10;19.30;;;26.70;77.70;;;;;;1911745;75;21161;-77
2021/11/13 12:19:41;;;;;;;26.10;20.82;;;26.70;77.90;;;;;;1907870;75;21652;-77
2021/11/13 12:22:12;;;;;;;29.80;20.50;;;26.60;77.70;;;;;;1912024;75;21202;-78
2021/11/13 12:24:43;;;;;;;27.67;20.20;;;26.60;77.90;;;;;;1912242;75;21098;-77
2021/11/13 12:27:19;;;;;;;29.70;19.75;;;26.60;78.20;;;;;;1908798;74;21584;-77
2021/11/13 12:29:55;;;;;;;28.05;20.52;;;26.60;78.50;;;;;;1910893;74;21166;-78
2021/11/13 12:32:28;;;;;;;31.30;21.20;;;26.60;78.70;;;;;;1915206;73;21070;-77
2021/11/13 12:35:02;;;;;;;;;;;26.60;78.80;;;;;;1918734;73;21160;-77
2021/11/13 12:37:33;;;;;;;28.47;19.52;;;26.60;77.90;;;;;;1883981;75;20154;-78
2021/11/13 12:40:04;;;;;;;31.17;19.95;;;26.60;78.40;;;;;;1912999;73;21648;-77
2021/11/13 12:42:35;;;;;;;26.23;19.77;;;26.60;78.80;;;;;;1898662;74;21554;-78
2021/11/13 12:45:08;;;;;;;30.37;20.65;;;26.50;78.80;;;;;;1899243;75;21293;-78
2021/11/13 12:47:38;;;;;;;29.65;20.70;;;26.50;79.30;;;;;;1905259;74;21077;-79
2021/11/13 12:50:11;;;;;;;31.40;20.43;;;26.50;79.20;;;;;;1858990;75;21094;-78
2021/11/13 12:53:04;;;;;;;29.30;20.60;;;26.50;79.20;;;;;;1856619;75;21246;-78
2021/11/13 12:55:38;;;;;;;33.20;21.35;;;26.50;79.50;;;;;;1932368;73;21468;-78
2021/11/13 12:58:17;;;;;;;29.80;20.12;;;26.40;79.20;;;;;;1929921;74;21049;-77
2021/11/13 13:00:50;;;;;;;28.02;19.48;;;26.40;79.10;;;;;;1938738;73;21093;-79
2021/11/13 13:03:27;;;;;;;26.12;20.05;;;26.40;79.40;;;;;;1938356;73;21070;-77
2021/11/13 13:06:04;;;;;;;26.10;20.55;;;26.30;79.40;;;;;;1933952;72;21483;-78
2021/11/13 13:08:38;;;;;;;29.65;20.95;;;26.30;79.60;;;;;;1943432;73;21105;-78